createdAt,value
2017-09-05T00:00:30.954Z,71.30
2017-09-05T00:02:57.200Z,71.80
2017-09-05T00:05:23.478Z,71.70
2017-09-05T00:08:01.077Z,71.20
2017-09-05T00:10:29.329Z,71.60
2017-09-05T00:12:59.188Z,70.20
2017-09-05T00:15:26.288Z,69.40
2017-09-05T00:17:56.972Z,70.50
2017-09-05T00:20:23.864Z,70.50
2017-09-05T00:22:52.017Z,69.00
2017-09-05T00:25:18.283Z,70.70
2017-09-05T00:27:44.599Z,69.30
2017-09-05T00:30:11.638Z,68.50
2017-09-05T00:32:38.113Z,70.00
2017-09-05T00:35:05.392Z,68.60
2017-09-05T00:37:31.632Z,68.10
2017-09-05T00:39:57.884Z,69.80
2017-09-05T00:42:24.209Z,68.70
2017-09-05T00:44:50.506Z,70.50
2017-09-05T00:47:16.761Z,70.20
2017-09-05T00:49:43.008Z,70.50
2017-09-05T00:52:09.291Z,71.40
2017-09-05T00:54:36.131Z,70.80
2017-09-05T00:57:02.567Z,70.80
2017-09-05T00:59:30.923Z,69.10
2017-09-05T01:01:58.205Z,69.00
2017-09-05T01:04:24.458Z,69.00
2017-09-05T01:06:51.728Z,69.10
2017-09-05T01:09:18.983Z,68.90
2017-09-05T01:11:45.248Z,68.50
2017-09-05T01:14:11.574Z,69.30
2017-09-05T01:16:38.728Z,69.00
2017-09-05T01:19:05.021Z,68.40
2017-09-05T01:21:31.894Z,68.50
2017-09-05T01:23:58.489Z,71.80
2017-09-05T01:26:25.404Z,71.50
2017-09-05T01:28:51.659Z,69.90
2017-09-05T01:31:17.892Z,70.30
2017-09-05T01:33:44.139Z,69.30
2017-09-05T01:36:10.382Z,69.00
2017-09-05T01:38:36.928Z,69.40
2017-09-05T01:41:03.470Z,69.20
2017-09-05T01:43:36.751Z,71.60
2017-09-05T01:46:03.821Z,72.60
2017-09-05T01:48:30.609Z,71.00
2017-09-05T01:50:56.834Z,71.00
2017-09-05T01:53:23.710Z,72.50
2017-09-05T01:55:50.904Z,72.30
2017-09-05T01:58:17.134Z,72.40
2017-09-05T02:00:43.380Z,73.50
2017-09-05T02:03:09.624Z,71.70
2017-09-05T02:05:35.886Z,70.80
2017-09-05T02:08:02.134Z,70.10
2017-09-05T02:10:28.648Z,70.10
2017-09-05T02:12:54.871Z,71.00
2017-09-05T02:15:21.132Z,70.00
2017-09-05T02:17:48.021Z,69.70
2017-09-05T02:20:14.301Z,70.30
2017-09-05T02:22:41.089Z,70.30
2017-09-05T02:25:07.892Z,70.20
2017-09-05T02:27:34.858Z,70.30
2017-09-05T02:30:01.119Z,70.40
2017-09-05T02:32:27.679Z,70.00
2017-09-05T02:34:53.965Z,70.40
2017-09-05T02:37:20.214Z,72.60
2017-09-05T02:39:46.466Z,74.00
2017-09-05T02:42:13.194Z,75.00
2017-09-05T02:44:39.468Z,74.10
2017-09-05T02:47:06.748Z,74.20
2017-09-05T02:49:33.000Z,73.80
2017-09-05T02:51:59.251Z,73.30
2017-09-05T02:54:25.469Z,74.00
2017-09-05T02:56:51.728Z,74.00
2017-09-05T02:59:18.559Z,72.80
2017-09-05T03:01:45.734Z,73.70
2017-09-05T03:04:12.002Z,73.70
2017-09-05T03:06:38.274Z,72.40
2017-09-05T03:09:05.067Z,71.90
2017-09-05T03:11:32.135Z,71.80
2017-09-05T03:13:59.005Z,71.90
2017-09-05T03:16:25.812Z,71.20
2017-09-05T03:18:52.994Z,70.70
2017-09-05T03:21:19.284Z,71.00
2017-09-05T03:23:45.569Z,70.90
2017-09-05T03:26:11.831Z,71.20
2017-09-05T03:28:38.546Z,70.70
2017-09-05T03:31:06.156Z,70.70
2017-09-05T03:33:33.448Z,71.40
2017-09-05T03:36:00.331Z,71.20
2017-09-05T03:38:26.702Z,71.50
2017-09-05T03:40:52.982Z,70.90
2017-09-05T03:43:19.225Z,70.80
2017-09-05T03:45:46.159Z,70.70
2017-09-05T03:48:12.415Z,71.20
2017-09-05T03:50:39.672Z,71.80
2017-09-05T03:53:06.111Z,71.80
2017-09-05T03:55:33.005Z,71.30
2017-09-05T03:57:59.619Z,71.30
2017-09-05T04:00:25.880Z,70.80
2017-09-05T04:02:52.125Z,70.70
2017-09-05T04:05:18.367Z,70.30
2017-09-05T04:07:44.637Z,70.30
2017-09-05T04:10:11.520Z,70.40
2017-09-05T04:12:38.788Z,70.30
2017-09-05T04:15:05.408Z,70.00
2017-09-05T04:17:33.058Z,70.60
2017-09-05T04:19:59.312Z,70.20
2017-09-05T04:22:26.162Z,70.20
2017-09-05T04:24:52.435Z,70.10
2017-09-05T04:27:18.691Z,70.60
2017-09-05T04:29:45.333Z,71.10
2017-09-05T04:32:11.584Z,71.50
2017-09-05T04:34:38.459Z,71.70
2017-09-05T04:37:04.716Z,73.10
2017-09-05T04:39:30.962Z,70.80
2017-09-05T04:41:57.235Z,71.30
2017-09-05T04:44:23.497Z,70.60
2017-09-05T04:46:49.753Z,71.20
2017-09-05T04:49:16.015Z,73.90
2017-09-05T04:51:42.243Z,74.10
2017-09-05T04:54:08.501Z,73.60
2017-09-05T04:56:34.756Z,72.90
2017-09-05T04:59:01.334Z,73.50
2017-09-05T05:01:28.165Z,72.10
2017-09-05T05:03:54.536Z,73.70
2017-09-05T05:06:22.695Z,71.90
2017-09-05T05:08:50.214Z,71.70
2017-09-05T05:11:17.038Z,71.70
2017-09-05T05:13:43.353Z,71.60
2017-09-05T05:16:09.787Z,72.00
2017-09-05T05:18:36.342Z,72.30
2017-09-05T05:21:02.602Z,72.30
2017-09-05T05:23:29.268Z,72.60
2017-09-05T05:25:55.597Z,73.70
2017-09-05T05:28:22.008Z,73.60
2017-09-05T05:30:48.440Z,73.80
2017-09-05T05:33:14.691Z,73.70
2017-09-05T05:35:40.947Z,72.50
2017-09-05T05:38:07.926Z,73.10
2017-09-05T05:40:34.762Z,71.20
2017-09-05T05:43:01.035Z,70.70
2017-09-05T05:45:27.596Z,71.00
2017-09-05T05:47:54.463Z,70.90
2017-09-05T05:50:21.320Z,70.40
2017-09-05T05:52:48.735Z,70.40
2017-09-05T05:55:15.065Z,70.50
2017-09-05T06:00:14.386Z,69.70
2017-09-05T06:02:40.623Z,69.60
2017-09-05T06:05:07.064Z,70.00
2017-09-05T06:07:34.456Z,70.60
2017-09-05T06:10:01.040Z,71.50
2017-09-05T06:12:27.808Z,70.40
2017-09-05T06:14:54.118Z,71.30
2017-09-05T06:17:20.356Z,70.60
2017-09-05T06:19:46.763Z,71.60
2017-09-05T06:22:14.011Z,70.30
2017-09-05T06:24:40.257Z,69.70
2017-09-05T06:27:06.511Z,67.10
2017-09-05T06:29:32.757Z,68.40
2017-09-05T06:31:59.220Z,69.00
2017-09-05T06:34:26.349Z,67.60
2017-09-05T06:36:53.389Z,63.90
2017-09-05T06:39:19.658Z,66.70
2017-09-05T06:41:45.917Z,64.40
2017-09-05T06:44:12.166Z,65.00
2017-09-05T06:46:38.398Z,65.30
2017-09-05T06:49:05.363Z,65.40
2017-09-05T06:51:32.594Z,62.10
2017-09-05T06:53:59.168Z,62.60
2017-09-05T06:56:26.580Z,65.40
2017-09-05T06:58:54.149Z,66.10
2017-09-05T07:01:20.950Z,61.90
2017-09-05T07:03:47.909Z,59.60
2017-09-05T07:06:14.175Z,63.20
2017-09-05T07:08:41.989Z,62.20
2017-09-05T07:11:09.120Z,60.90
2017-09-05T07:13:36.247Z,59.00
2017-09-05T07:16:03.472Z,60.60
2017-09-05T07:18:29.768Z,60.60
2017-09-05T07:20:56.120Z,59.00
2017-09-05T07:23:22.354Z,59.60
2017-09-05T07:25:49.143Z,58.10
2017-09-05T07:28:15.632Z,57.40
2017-09-05T07:30:41.908Z,56.00
2017-09-05T07:33:09.115Z,55.80
2017-09-05T07:35:36.108Z,56.80
2017-09-05T07:38:03.659Z,55.50
2017-09-05T07:40:29.960Z,53.80
2017-09-05T07:42:56.216Z,55.30
2017-09-05T07:45:22.468Z,53.20
2017-09-05T07:47:48.698Z,53.00
2017-09-05T07:50:15.653Z,53.80
2017-09-05T07:52:41.897Z,52.90
2017-09-05T07:55:08.127Z,52.90
2017-09-05T07:57:34.843Z,53.90
2017-09-05T08:00:01.123Z,53.20
2017-09-05T08:02:27.381Z,51.60
2017-09-05T08:04:53.619Z,52.30
2017-09-05T08:07:19.871Z,52.50
2017-09-05T08:09:46.168Z,52.70
2017-09-05T08:12:12.952Z,52.20
2017-09-05T08:14:39.215Z,52.10
2017-09-05T08:17:05.488Z,52.70
2017-09-05T08:19:32.327Z,53.10
2017-09-05T08:21:58.932Z,53.70
2017-09-05T08:24:25.840Z,53.10
2017-09-05T08:26:52.314Z,52.70
2017-09-05T08:29:18.800Z,51.60
2017-09-05T08:31:45.742Z,51.70
2017-09-05T08:34:12.227Z,52.10
2017-09-05T08:36:38.499Z,52.60
2017-09-05T08:39:04.756Z,52.30
2017-09-05T08:41:31.613Z,51.30
2017-09-05T08:43:57.906Z,52.00
2017-09-05T08:46:24.161Z,51.30
2017-09-05T08:48:51.010Z,50.00
2017-09-05T08:51:17.263Z,50.70
2017-09-05T08:53:43.511Z,51.20
2017-09-05T08:56:09.753Z,50.00
2017-09-05T08:58:36.199Z,50.20
2017-09-05T09:01:02.519Z,50.80
2017-09-05T09:03:29.368Z,49.70
2017-09-05T09:05:56.160Z,49.50
2017-09-05T09:08:23.115Z,50.40
2017-09-05T09:10:49.372Z,50.60
2017-09-05T09:13:15.883Z,51.10
2017-09-05T09:15:42.905Z,49.50
2017-09-05T09:18:10.607Z,50.30
2017-09-05T09:20:37.845Z,50.20
2017-09-05T09:23:05.088Z,50.30
2017-09-05T09:25:31.580Z,50.00
2017-09-05T09:27:59.917Z,49.90
2017-09-05T09:30:26.155Z,49.90
2017-09-05T09:32:53.131Z,49.80
2017-09-05T09:35:21.323Z,50.40
2017-09-05T09:37:47.604Z,50.10
2017-09-05T09:40:14.856Z,47.80
2017-09-05T09:42:41.648Z,48.50
2017-09-05T09:45:07.908Z,48.80
2017-09-05T09:47:34.410Z,48.50
2017-09-05T09:50:00.772Z,49.70
2017-09-05T09:52:27.845Z,49.80
2017-09-05T09:54:54.735Z,49.30
2017-09-05T09:57:21.127Z,48.30
2017-09-05T09:59:47.392Z,48.80
2017-09-05T10:02:13.885Z,48.40
2017-09-05T10:04:41.654Z,48.00
2017-09-05T10:07:08.537Z,47.90
2017-09-05T10:09:35.442Z,47.00
2017-09-05T10:12:06.011Z,46.70
2017-09-05T10:14:33.401Z,47.10
2017-09-05T10:17:00.665Z,47.10
2017-09-05T10:19:28.387Z,46.90
2017-09-05T10:21:54.676Z,47.20
2017-09-05T10:24:21.378Z,47.70
2017-09-05T10:26:47.652Z,48.10
2017-09-05T10:29:14.557Z,48.40
2017-09-05T10:31:41.304Z,47.20
2017-09-05T10:34:08.116Z,48.10
2017-09-05T10:36:34.461Z,47.40
2017-09-05T10:39:01.377Z,46.60
2017-09-05T10:41:27.617Z,47.80
2017-09-05T10:43:53.900Z,48.10
2017-09-05T10:46:20.999Z,48.60
2017-09-05T10:48:47.322Z,48.20
2017-09-05T10:51:14.192Z,47.30
2017-09-05T10:53:40.719Z,46.70
2017-09-05T10:56:07.680Z,46.80
2017-09-05T10:58:35.044Z,48.60
2017-09-05T11:01:02.009Z,47.00
2017-09-05T11:03:28.844Z,46.70
2017-09-05T11:05:55.248Z,47.10
2017-09-05T11:08:21.514Z,45.60
2017-09-05T11:10:48.809Z,46.30
2017-09-05T11:13:15.726Z,45.60
2017-09-05T11:15:41.986Z,45.00
2017-09-05T11:18:15.676Z,44.30
2017-09-05T11:20:41.917Z,44.50
2017-09-05T11:23:08.354Z,44.80
2017-09-05T11:25:34.644Z,47.10
2017-09-05T11:28:01.280Z,47.20
2017-09-05T11:30:28.174Z,45.60
2017-09-05T11:32:54.458Z,45.40
2017-09-05T11:35:20.738Z,46.00
2017-09-05T11:37:47.356Z,47.30
2017-09-05T11:40:15.463Z,46.60
2017-09-05T11:42:41.747Z,46.60
2017-09-05T11:45:09.041Z,46.50
2017-09-05T11:47:35.953Z,46.70
2017-09-05T11:50:03.224Z,47.00
2017-09-05T11:52:29.828Z,46.50
2017-09-05T11:54:56.723Z,47.00
2017-09-05T11:57:23.005Z,47.70
2017-09-05T11:59:56.185Z,47.30
2017-09-05T12:02:22.455Z,45.90
2017-09-05T12:04:48.717Z,46.30
2017-09-05T12:07:14.958Z,46.70
2017-09-05T12:09:41.224Z,46.80
2017-09-05T12:12:07.471Z,47.50
2017-09-05T12:14:34.338Z,47.50
2017-09-05T12:17:01.603Z,48.00
2017-09-05T12:19:28.874Z,48.50
2017-09-05T12:21:55.090Z,48.30
2017-09-05T12:24:21.379Z,48.30
2017-09-05T12:26:48.014Z,48.40
2017-09-05T12:29:16.215Z,48.30
2017-09-05T12:31:42.899Z,48.40
2017-09-05T12:34:09.853Z,49.30
2017-09-05T12:36:36.412Z,49.10
2017-09-05T12:39:03.185Z,48.60
2017-09-05T12:41:29.464Z,49.00
2017-09-05T12:43:55.788Z,48.80
2017-09-05T12:46:22.642Z,48.80
2017-09-05T12:48:49.266Z,48.50
2017-09-05T12:51:16.125Z,48.70
2017-09-05T12:53:43.370Z,49.00
2017-09-05T12:56:09.875Z,49.80
2017-09-05T12:58:36.319Z,49.80
2017-09-05T13:01:02.560Z,49.70
2017-09-05T13:03:29.230Z,48.00
2017-09-05T13:05:56.841Z,48.60
2017-09-05T13:08:24.124Z,48.60
2017-09-05T13:10:50.621Z,48.80
2017-09-05T13:13:17.536Z,49.10
2017-09-05T13:15:44.000Z,48.70
2017-09-05T13:18:10.257Z,48.70
2017-09-05T13:20:36.503Z,49.30
2017-09-05T13:23:02.782Z,48.80
2017-09-05T13:25:29.152Z,48.70
2017-09-05T13:27:56.330Z,48.90
2017-09-05T13:30:23.637Z,49.30
2017-09-05T13:32:50.927Z,49.50
2017-09-05T13:35:18.143Z,49.70
2017-09-05T13:37:44.433Z,49.60
2017-09-05T13:40:10.717Z,50.10
2017-09-05T13:42:38.463Z,48.70
2017-09-05T13:45:05.022Z,48.90
2017-09-05T13:47:31.278Z,48.80
2017-09-05T13:49:58.403Z,48.70
2017-09-05T13:52:25.317Z,49.00
2017-09-05T13:54:51.597Z,49.40
2017-09-05T13:57:20.198Z,48.70
2017-09-05T13:59:46.554Z,49.20
2017-09-05T14:02:13.488Z,49.20
2017-09-05T14:04:39.731Z,49.40
2017-09-05T14:07:06.946Z,50.30
2017-09-05T14:09:33.721Z,49.80
2017-09-05T14:11:59.950Z,50.20
2017-09-05T14:14:26.994Z,49.80
2017-09-05T14:16:53.865Z,49.90
2017-09-05T14:19:21.411Z,50.60
2017-09-05T14:21:47.655Z,50.50
2017-09-05T14:24:13.946Z,50.50
2017-09-05T14:26:40.556Z,50.30
2017-09-05T14:29:07.747Z,50.30
2017-09-05T14:31:33.994Z,50.40
2017-09-05T14:34:01.535Z,51.10
2017-09-05T14:36:27.840Z,50.90
2017-09-05T14:38:54.693Z,51.10
2017-09-05T14:41:21.791Z,50.90
2017-09-05T14:43:48.587Z,50.80
2017-09-05T14:46:14.836Z,51.20
2017-09-05T14:48:43.622Z,51.50
2017-09-05T14:51:10.944Z,51.30
2017-09-05T14:53:37.187Z,50.80
2017-09-05T14:56:03.614Z,51.40
2017-09-05T14:58:29.854Z,51.80
2017-09-05T15:00:57.097Z,52.00
2017-09-05T15:03:24.957Z,52.70
2017-09-05T15:05:51.911Z,52.50
2017-09-05T15:08:18.940Z,52.40
2017-09-05T15:10:45.208Z,52.60
2017-09-05T15:13:11.446Z,52.60
2017-09-05T15:15:37.784Z,53.00
2017-09-05T15:18:04.887Z,53.10
2017-09-05T15:20:32.163Z,53.60
2017-09-05T15:22:59.115Z,53.50
2017-09-05T15:25:26.042Z,52.90
2017-09-05T15:27:52.303Z,52.60
2017-09-05T15:30:18.564Z,52.70
2017-09-05T15:32:45.039Z,52.50
2017-09-05T15:35:12.282Z,52.30
2017-09-05T15:37:38.535Z,52.50
2017-09-05T15:40:05.797Z,52.70
2017-09-05T15:42:32.733Z,52.60
2017-09-05T15:45:00.001Z,52.80
2017-09-05T15:47:27.261Z,53.20
2017-09-05T15:49:54.587Z,53.10
2017-09-05T15:52:20.860Z,52.70
2017-09-05T15:54:47.924Z,52.70
2017-09-05T15:57:15.175Z,52.70
2017-09-05T15:59:42.320Z,53.30
2017-09-05T16:02:08.589Z,53.80
2017-09-05T16:14:25.821Z,53.90
2017-09-05T16:16:52.945Z,55.00
2017-09-05T16:19:19.724Z,54.60
2017-09-05T16:21:46.275Z,56.60
2017-09-05T16:24:13.485Z,56.90
2017-09-05T16:26:40.502Z,57.50
2017-09-05T16:29:06.772Z,56.20
2017-09-05T16:31:33.041Z,56.70
2017-09-05T16:33:59.275Z,56.80
2017-09-05T16:36:26.447Z,56.20
2017-09-05T16:38:52.874Z,56.90
2017-09-05T16:41:19.890Z,57.20
2017-09-05T16:43:46.300Z,57.70
2017-09-05T16:46:12.641Z,57.10
2017-09-05T16:48:39.170Z,57.60
2017-09-05T16:51:06.058Z,57.70
2017-09-05T16:53:32.328Z,58.80
2017-09-05T16:55:58.658Z,57.40
2017-09-05T16:58:33.492Z,58.70
2017-09-05T17:00:59.745Z,58.50
2017-09-05T17:03:27.005Z,58.90
2017-09-05T17:05:54.234Z,59.20
2017-09-05T17:08:20.499Z,58.40
2017-09-05T17:10:46.771Z,59.70
2017-09-05T17:13:13.971Z,59.00
2017-09-05T17:15:47.266Z,58.90
2017-09-05T17:18:15.046Z,58.80
2017-09-05T17:20:42.462Z,60.60
2017-09-05T17:23:09.315Z,60.40
2017-09-05T17:25:35.570Z,59.50
2017-09-05T17:28:01.808Z,60.20
2017-09-05T17:30:29.806Z,60.70
2017-09-05T17:32:56.092Z,61.20
2017-09-05T17:35:22.677Z,60.30
2017-09-05T17:37:49.513Z,60.70
2017-09-05T17:40:15.997Z,60.20
2017-09-05T17:42:42.883Z,61.50
2017-09-05T17:45:09.170Z,60.10
2017-09-05T17:47:35.442Z,60.80
2017-09-05T17:50:01.698Z,59.70
2017-09-05T17:52:28.511Z,60.50
2017-09-05T17:54:54.827Z,61.40
2017-09-05T17:57:21.210Z,62.30
2017-09-05T17:59:48.140Z,64.70
2017-09-05T18:02:15.835Z,66.00
2017-09-05T18:04:42.103Z,66.20
2017-09-05T18:07:08.348Z,65.90
2017-09-05T18:09:35.337Z,65.90
2017-09-05T18:12:01.614Z,64.70
2017-09-05T18:14:27.867Z,65.20
2017-09-05T18:16:55.095Z,65.20
2017-09-05T18:19:21.734Z,66.20
2017-09-05T18:21:48.303Z,66.90
2017-09-05T18:24:14.590Z,66.00
2017-09-05T18:26:41.459Z,66.40
2017-09-05T18:29:08.195Z,65.10
2017-09-05T18:31:35.217Z,64.70
2017-09-05T18:34:01.594Z,65.70
2017-09-05T18:36:27.829Z,66.30
2017-09-05T18:38:54.096Z,65.20
2017-09-05T18:41:21.028Z,68.20
2017-09-05T18:43:47.400Z,68.30
2017-09-05T18:46:13.645Z,68.80
2017-09-05T18:48:40.996Z,68.30
2017-09-05T18:51:07.858Z,68.80
2017-09-05T18:53:34.147Z,68.60
2017-09-05T18:56:00.422Z,68.60
2017-09-05T18:58:26.668Z,66.50
2017-09-05T19:00:53.023Z,67.40
2017-09-05T19:03:19.292Z,67.60
2017-09-05T19:05:46.073Z,68.50
2017-09-05T19:08:13.305Z,67.10
2017-09-05T19:10:40.397Z,68.80
2017-09-05T19:13:07.551Z,69.00
2017-09-05T19:15:34.908Z,67.90
2017-09-05T19:18:01.184Z,68.90
2017-09-05T19:20:28.666Z,69.70
2017-09-05T19:22:56.934Z,69.10
2017-09-05T19:25:23.195Z,68.90
2017-09-05T19:27:49.487Z,68.80
2017-09-05T19:30:16.539Z,68.40
2017-09-05T19:32:43.250Z,66.90
2017-09-05T19:35:10.225Z,66.60
2017-09-05T19:37:37.490Z,67.60
2017-09-05T19:40:04.356Z,68.70
2017-09-05T19:42:30.720Z,67.60
2017-09-05T19:44:57.000Z,68.20
2017-09-05T19:47:23.284Z,67.10
2017-09-05T19:49:49.539Z,66.80
2017-09-05T19:52:15.868Z,67.40
2017-09-05T19:54:42.216Z,67.70
2017-09-05T19:57:09.055Z,67.10
2017-09-05T19:59:35.560Z,66.40
2017-09-05T20:02:02.845Z,66.30
2017-09-05T20:04:30.106Z,66.70
2017-09-05T20:06:56.448Z,67.30
2017-09-05T20:09:23.410Z,66.80
2017-09-05T20:11:50.022Z,66.60
2017-09-05T20:14:17.201Z,67.90
2017-09-05T20:16:43.975Z,66.80
2017-09-05T20:19:11.190Z,67.10
2017-09-05T20:21:37.542Z,68.70
2017-09-05T20:24:04.401Z,68.80
2017-09-05T20:26:30.759Z,69.20
2017-09-05T20:28:57.607Z,69.00
2017-09-05T20:31:24.417Z,69.10
2017-09-05T20:33:51.664Z,67.50
2017-09-05T20:36:18.046Z,67.40
2017-09-05T20:38:44.907Z,67.20
2017-09-05T20:41:11.444Z,67.50
2017-09-05T20:43:38.511Z,67.00
2017-09-05T20:46:06.229Z,67.50
2017-09-05T20:48:33.227Z,67.80
2017-09-05T20:50:59.564Z,67.40
2017-09-05T20:53:25.832Z,67.40
2017-09-05T20:55:52.611Z,67.00
2017-09-05T20:58:18.882Z,69.00
2017-09-05T21:00:46.114Z,68.90
2017-09-05T21:03:12.363Z,68.20
2017-09-05T21:05:39.007Z,68.00
2017-09-05T21:08:05.251Z,68.30
2017-09-05T21:10:31.532Z,67.90
2017-09-05T21:12:58.348Z,68.30
2017-09-05T21:15:24.638Z,70.20
2017-09-05T21:17:52.155Z,70.30
2017-09-05T21:20:19.395Z,68.30
2017-09-05T21:22:46.448Z,70.00
2017-09-05T21:25:13.614Z,71.30
2017-09-05T21:27:40.899Z,70.00
2017-09-05T21:30:07.189Z,70.90
2017-09-05T21:32:34.485Z,72.00
2017-09-05T21:35:01.752Z,71.80
2017-09-05T21:37:28.362Z,71.90
2017-09-05T21:39:56.626Z,70.50
2017-09-05T21:42:24.278Z,71.90
2017-09-05T21:44:52.067Z,71.90
2017-09-05T21:47:18.409Z,71.90
2017-09-05T21:49:45.782Z,71.50
2017-09-05T21:52:13.079Z,70.70
2017-09-05T21:54:39.335Z,70.00
2017-09-05T21:57:06.024Z,70.30
2017-09-05T21:59:32.812Z,70.10
2017-09-05T22:01:59.892Z,70.50
2017-09-05T22:04:27.220Z,71.30
2017-09-05T22:06:53.484Z,70.00
2017-09-05T22:09:20.013Z,70.70
2017-09-05T22:11:46.650Z,73.80
2017-09-05T22:14:19.070Z,73.00
2017-09-05T22:16:47.278Z,71.60
2017-09-05T22:19:20.513Z,72.30
2017-09-05T22:21:47.729Z,72.50
2017-09-05T22:24:15.295Z,73.90
2017-09-05T22:26:48.455Z,74.00
2017-09-05T22:29:16.559Z,74.70
2017-09-05T22:31:43.775Z,74.60
2017-09-05T22:34:10.019Z,72.80
2017-09-05T22:36:37.258Z,75.40
2017-09-05T22:39:04.533Z,74.50
2017-09-05T22:41:32.343Z,72.80
2017-09-05T22:43:58.603Z,73.40
2017-09-05T22:46:24.860Z,72.50
2017-09-05T22:48:51.128Z,72.10
2017-09-05T22:51:18.297Z,72.40
2017-09-05T22:53:45.155Z,72.10
2017-09-05T22:56:11.644Z,71.90
2017-09-05T22:58:39.201Z,71.70
2017-09-05T23:01:05.732Z,71.80
2017-09-05T23:03:32.597Z,71.60
2017-09-05T23:05:59.393Z,71.70
2017-09-05T23:08:25.637Z,71.70
2017-09-05T23:10:52.161Z,71.70
2017-09-05T23:13:19.917Z,71.50
2017-09-05T23:15:47.138Z,71.70
2017-09-05T23:18:13.378Z,71.70
2017-09-05T23:20:40.507Z,72.20
2017-09-05T23:23:06.878Z,72.10
2017-09-05T23:25:34.842Z,72.20
2017-09-05T23:28:03.370Z,71.90
2017-09-05T23:30:30.644Z,71.70
2017-09-05T23:32:58.121Z,72.00
2017-09-05T23:35:24.481Z,72.10
2017-09-05T23:37:52.371Z,71.60
2017-09-05T23:40:19.314Z,71.90
2017-09-05T23:42:45.708Z,71.70
2017-09-05T23:45:12.249Z,71.70
2017-09-05T23:47:39.392Z,71.60
2017-09-05T23:52:38.528Z,72.00
2017-09-05T23:55:05.767Z,71.50
2017-09-05T23:57:33.031Z,72.00
